Sunday, April 22, 2018, 9:31 PM EDT
Back to Local

KDUJ, Du Bois-jefferson County

Location: Reynoldsville, PA, United States Lat: 41.183
Local Time: 9:31 PM EDT ( 1:31 GMT) Lon: -78.883
Time Zone: US/Eastern Elev: 1820 ft

Show me the last for .
Show Coded

Time T Td Feel RH Dir Speed Gust Alt SLP Vis Weather Sky Remarks
2018-04-22 20:53 55 18 - 23 110° 5 - 30.31 30.32 10 CLR None
2018-04-22 19:53 58 20 - 22 130° 5 - 30.29 30.30 10 CLR 6-hr Min Temp (8pm): 57.9°F
6-hr Max Temp (8pm): 64.9°F
2018-04-22 18:53 62 19 - 18 130° 5 - 30.28 30.29 10 CLR None
2018-04-22 17:53 64 19 - 17 60° 6 - 30.28 30.29 10 CLR None
2018-04-22 16:53 63 18 - 17 - Calm - 30.29 30.30 10 CLR None
2018-04-22 15:53 63 19 - 18 30° 6 - 30.30 30.31 10 CLR None
2018-04-22 14:53 60 18 - 19 - - - 30.32 30.33 10 CLR None
2018-04-22 13:53 60 19 - 20 130° 3 - 30.33 30.34 10 CLR 6-hr Min Temp (2pm): 39.9°F
6-hr Max Temp (2pm): 61.0°F
2018-04-22 12:53 59 21 - 22 Variable 5 - 30.35 30.35 10 CLR None
2018-04-22 11:53 57 24 - 27 90° 9 - 30.36 30.37 10 CLR None
2018-04-22 10:53 53 21 - 28 90° 9 - 30.38 30.39 10 CLR None
2018-04-22 09:53 50 21 46 31 110° 12 - 30.39 30.40 10 CLR None
2018-04-22 08:53 46 23 41 39 80° 10 - 30.39 30.41 10 CLR None
2018-04-22 07:53 39 23 35 52 80° 6 - 30.38 30.40 10 CLR 6-hr Min Temp (8am): 33.1°F
6-hr Max Temp (8am): 39.0°F
2018-04-22 06:53 35 21 31 56 80° 5 - 30.37 30.39 10 CLR None
2018-04-22 05:53 33 21 28 60 90° 6 - 30.36 30.38 10 CLR None
2018-04-22 04:53 35 21 29 56 90° 7 - 30.35 30.37 10 CLR None
2018-04-22 03:53 37 21 32 51 80° 6 - 30.36 30.38 10 CLR None
2018-04-22 02:53 37 21 32 51 80° 6 - 30.36 30.38 10 CLR None
2018-04-22 01:53 39 21 36 48 90° 5 - 30.36 30.39 10 CLR 6-hr Min Temp (2am): 39.0°F
6-hr Max Temp (2am): 52.0°F
2018-04-22 00:53 42 21 38 42 50° 6 - 30.36 30.39 10 CLR 24-hr Min Temp (1am): 27.0°F
24-hr Max Temp (1am): 55.9°F
2018-04-21 23:53 42 22 39 44 50° 5 - 30.36 30.38 10 CLR None
2018-04-21 22:53 44 23 40 42 30° 8 - 30.36 30.38 10 CLR None
2018-04-21 21:53 46 24 42 41 30° 8 - 30.35 30.38 10 CLR None

Support USWX by starting your Amazon purchase here.